Time;durP1;ratioP1;P1;durP2;ratioP2;P2;SDS_P1;SDS_P2;PMS_P1;PMS_P2;Temp;Humidity;BMP_temperature;BMP_pressure;BME280_temperature;BME280_humidity;BME280_pressure;Samples;Min_cycle;Max_cycle;Signal;HPM_P1;HPM_P2
2023/02/10 05:39:33;;;;;;;;;98.33;82.00;;;;;7.53;100.00;103595.56;4881236;23;49718;-66
2023/02/10 05:42:04;;;;;;;;;92.33;76.67;;;;;7.68;100.00;103626.44;4875521;28;50200;-65
2023/02/10 05:44:31;;;;;;;;;94.33;73.33;;;;;7.52;100.00;103609.44;4885526;29;49846;-69
2023/02/10 05:46:57;;;;;;;;;90.33;69.67;;;;;7.02;100.00;103507.09;4882306;29;51231;-72
2023/02/10 05:49:26;;;;;;;;;86.67;68.33;;;;;7.59;100.00;103630.97;4882960;28;50997;-66
2023/02/10 05:51:51;;;;;;;;;86.67;67.67;;;;;7.10;100.00;103538.25;4882366;29;49956;-67
2023/02/10 05:54:17;;;;;;;;;91.00;70.00;;;;;7.69;100.00;103628.28;4880630;29;50863;-66
2023/02/10 05:56:42;;;;;;;;;81.67;63.33;;;;;7.62;100.00;103627.66;4882463;28;50036;-67
2023/02/10 05:59:14;;;;;;;;;80.67;63.33;;;;;7.59;100.00;103616.97;4884241;29;50328;-67
2023/02/10 06:01:40;;;;;;;;;80.67;62.67;;;;;7.44;100.00;103601.03;4881823;29;49770;-66
2023/02/10 06:04:05;;;;;;;;;81.00;63.67;;;;;7.13;100.00;103540.19;4885976;29;49933;-64
2023/02/10 06:06:31;;;;;;;;;72.33;59.00;;;;;7.74;100.00;103653.09;4882081;28;49974;-65
2023/02/10 06:08:57;;;;;;;;;66.33;53.67;;;;;7.43;100.00;103593.94;4879943;29;50492;-66
2023/02/10 06:11:22;;;;;;;;;78.67;61.00;;;;;7.03;100.00;103524.56;4883355;28;49814;-67
2023/02/10 06:13:48;;;;;;;;;76.33;60.67;;;;;7.34;100.00;103575.88;4885496;28;49875;-75
2023/02/10 06:16:13;;;;;;;;;70.67;57.33;;;;;5.87;100.00;103333.47;4881376;29;50119;-68
2023/02/10 06:18:38;;;;;;;;;67.33;55.67;;;;;7.75;100.00;103657.53;4880830;29;51461;-68
2023/02/10 06:21:04;;;;;;;;;64.00;51.33;;;;;6.84;100.00;103511.75;4878725;29;49961;-75
2023/02/10 06:23:29;;;;;;;;;69.50;49.75;;;;;6.46;100.00;103444.34;4880185;29;49710;-77
2023/02/10 06:25:57;;;;;;;;;56.25;45.25;;;;;7.27;100.00;103562.19;4881035;29;49670;-70
2023/02/10 06:28:24;;;;;;;;;55.75;45.75;;;;;7.49;100.00;103603.97;4875658;29;50730;-74
2023/02/10 06:30:49;;;;;;;;;63.75;48.00;;;;;6.76;100.00;103472.00;4878011;29;49871;-72
2023/02/10 06:33:15;;;;;;;;;58.00;43.75;;;;;7.46;100.00;103600.34;4878189;29;49699;-72
2023/02/10 06:35:40;;;;;;;;;59.00;48.50;;;;;6.66;100.00;103492.97;4878093;29;49770;-73
2023/02/10 06:38:06;;;;;;;;;60.50;47.50;;;;;6.25;100.00;103383.53;4876452;29;50232;-73
2023/02/10 06:40:31;;;;;;;;;53.50;44.25;;;;;6.18;100.00;103394.28;4875257;29;49651;-71
2023/02/10 06:42:56;;;;;;;;;56.00;43.00;;;;;7.56;100.00;103621.97;4877390;29;49901;-70
2023/02/10 06:45:22;;;;;;;;;52.75;44.50;;;;;7.53;100.00;103608.66;4884693;29;49899;-69
2023/02/10 06:47:48;;;;;;;;;60.25;48.50;;;;;6.32;100.00;103435.44;4875220;29;50780;-74
2023/02/10 06:50:13;;;;;;;;;59.00;45.00;;;;;7.67;100.00;103666.47;4875242;29;49737;-78
2023/02/10 06:52:39;;;;;;;;;39.00;38.00;;;;;6.09;100.00;103364.88;4875102;29;49753;-76
2023/02/10 06:55:06;;;;;;;;;48.25;41.50;;;;;6.74;100.00;103468.34;4875704;29;49818;-75
2023/02/10 06:57:32;;;;;;;;;48.75;38.75;;;;;5.74;100.00;103322.88;4875034;29;49830;-78
2023/02/10 06:59:58;;;;;;;;;48.50;40.00;;;;;6.56;100.00;103472.09;4875196;29;49800;-73
2023/02/10 07:02:24;;;;;;;;;47.25;41.50;;;;;7.79;100.00;103653.44;4880233;29;49969;-77
2023/02/10 07:04:50;;;;;;;;;56.75;43.75;;;;;7.76;100.00;103650.59;4876155;29;49957;-68
2023/02/10 07:07:15;;;;;;;;;38.75;34.25;;;;;7.62;100.00;103625.97;4877375;29;49735;-67
2023/02/10 07:09:40;;;;;;;;;37.75;33.00;;;;;7.50;100.00;103621.47;4875083;29;49979;-69
2023/02/10 07:12:06;;;;;;;;;35.25;35.00;;;;;7.10;100.00;103535.63;4875296;29;49850;-66
2023/02/10 07:14:31;;;;;;;;;42.75;38.25;;;;;7.40;100.00;103592.00;4890087;28;49843;-67
2023/02/10 07:16:56;;;;;;;;;38.50;35.75;;;;;7.20;100.00;103560.78;4875177;29;50403;-68
2023/02/10 07:19:22;;;;;;;;;40.75;37.25;;;;;6.98;100.00;103523.31;4875032;29;49977;-65
2023/02/10 07:21:47;;;;;;;;;38.50;35.25;;;;;7.59;100.00;103633.56;4874897;29;49771;-73
2023/02/10 07:24:14;;;;;;;;;38.50;35.50;;;;;7.64;100.00;103645.31;4875027;29;49749;-67
2023/02/10 07:26:40;;;;;;;;;43.25;35.25;;;;;7.66;100.00;103646.34;4874774;29;49816;-66
2023/02/10 07:29:05;;;;;;;;;45.00;39.50;;;;;7.87;100.00;103673.25;4874722;29;49684;-66
2023/02/10 07:31:34;;;;;;;;;45.25;38.00;;;;;7.28;100.00;103556.16;4875890;29;49913;-66
2023/02/10 07:34:00;;;;;;;;;38.50;35.25;;;;;7.69;100.00;103632.59;4882108;29;49683;-66
2023/02/10 07:36:25;;;;;;;;;39.25;36.25;;;;;7.91;100.00;103692.72;4877919;29;50916;-67
2023/02/10 07:38:50;;;;;;;;;40.00;35.50;;;;;7.23;100.00;103542.72;4880353;29;49931;-74
2023/02/10 07:41:16;;;;;;;;;47.50;38.50;;;;;7.61;100.00;103618.00;4878290;29;50404;-73
2023/02/10 07:43:41;;;;;;;;;46.25;40.00;;;;;7.65;100.00;103636.69;4877990;29;49984;-74
2023/02/10 07:46:07;;;;;;;;;35.00;32.75;;;;;5.99;100.00;103365.81;4880453;29;49795;-74
2023/02/10 07:48:32;;;;;;;;;38.00;36.25;;;;;6.65;100.00;103475.44;4877727;29;49775;-74
2023/02/10 07:50:57;;;;;;;;;43.50;38.75;;;;;8.04;100.00;103727.81;4877488;29;50115;-74
2023/02/10 07:53:23;;;;;;;;;47.50;39.25;;;;;8.08;100.00;103721.09;4877865;29;49736;-74
2023/02/10 07:55:48;;;;;;;;;46.75;37.75;;;;;7.89;100.00;103669.06;4877502;29;49802;-74
2023/02/10 07:58:14;;;;;;;;;40.75;36.50;;;;;7.63;100.00;103632.13;4877427;29;49864;-74
2023/02/10 08:00:39;;;;;;;;;39.75;37.00;;;;;7.74;100.00;103642.63;4877640;29;50083;-73
2023/02/10 08:03:05;;;;;;;;;36.50;35.00;;;;;8.15;100.00;103719.88;4877847;29;49760;-74
2023/02/10 08:05:30;;;;;;;;;50.50;41.00;;;;;6.87;100.00;103465.03;4876077;29;51045;-74
2023/02/10 08:07:56;;;;;;;;;49.50;43.75;;;;;7.18;100.00;103534.53;4877389;29;49814;-73
2023/02/10 08:10:21;;;;;;;;;47.25;41.00;;;;;7.19;100.00;103522.38;4877313;29;50020;-73
2023/02/10 08:12:47;;;;;;;;;50.75;42.75;;;;;8.26;100.00;103701.59;4877490;29;49543;-74
2023/02/10 08:15:13;;;;;;;;;45.50;40.25;;;;;7.72;100.00;103641.63;4877343;29;49779;-73
2023/02/10 08:17:39;;;;;;;;;47.75;37.00;;;;;8.37;100.00;103707.69;4877366;29;49939;-73
2023/02/10 08:20:05;;;;;;;;;41.25;39.00;;;;;8.42;100.00;103708.97;4877396;29;49959;-74
2023/02/10 08:22:33;;;;;;;;;42.50;36.75;;;;;7.14;100.00;103482.88;4877475;28;50147;-74
2023/02/10 08:24:58;;;;;;;;;39.50;36.75;;;;;7.46;100.00;103550.69;4877309;29;50569;-74
2023/02/10 08:27:23;;;;;;;;;41.75;36.75;;;;;8.55;100.00;103750.06;4877318;29;49774;-73
2023/02/10 08:29:49;;;;;;;;;44.00;36.00;;;;;7.69;100.00;103559.38;4875811;29;50314;-74
2023/02/10 08:32:18;;;;;;;;;46.25;40.00;;;;;7.21;100.00;103491.16;4877319;29;49727;-74
2023/02/10 08:34:48;;;;;;;;;43.00;38.00;;;;;7.47;100.00;103551.59;4876780;29;49831;-73
2023/02/10 08:37:14;;;;;;;;;36.75;31.00;;;;;7.40;100.00;103510.06;4876782;29;49709;-73
2023/02/10 08:39:39;;;;;;;;;45.50;38.75;;;;;8.58;100.00;103690.97;4877178;29;49902;-73
2023/02/10 08:42:05;;;;;;;;;47.50;37.25;;;;;6.94;100.00;103369.78;4877141;29;49884;-74
2023/02/10 08:44:30;;;;;;;;;49.00;42.25;;;;;8.43;100.00;103670.59;4876470;29;50048;-73
2023/02/10 08:46:56;;;;;;;;;45.50;37.00;;;;;8.42;100.00;103679.25;4876315;29;49771;-73
2023/02/10 08:49:24;;;;;;;;;38.75;36.00;;;;;8.98;100.00;103730.66;4876947;29;49791;-73
2023/02/10 08:51:50;;;;;;;;;39.75;35.00;;;;;8.70;100.00;103664.81;4877089;29;49827;-73
2023/02/10 08:54:15;;;;;;;;;39.00;34.25;;;;;8.00;100.00;103534.75;4878183;29;52724;-75
2023/02/10 08:56:41;;;;;;;;;34.00;31.00;;;;;8.23;100.00;103561.75;4883012;29;49853;-74
2023/02/10 08:59:06;;;;;;;;;44.00;38.75;;;;;7.74;100.00;103493.59;4880244;29;49765;-74
2023/02/10 09:01:32;;;;;;;;;35.00;30.00;;;;;9.30;100.00;103745.22;4875813;29;49859;-74
2023/02/10 09:03:57;;;;;;;;;36.50;34.00;;;;;9.35;100.00;103709.75;4886719;28;50015;-75
2023/02/10 09:06:28;;;;;;;;;33.00;31.50;;;;;8.14;100.00;103498.28;4883158;29;49980;-73
2023/02/10 09:08:53;;;;;;;;;39.25;35.00;;;;;8.28;100.00;103570.84;4883789;29;49963;-70
2023/02/10 09:11:22;;;;;;;;;31.00;28.00;;;;;8.74;100.00;103616.19;4883120;29;49843;-72
2023/02/10 09:13:48;;;;;;;;;25.50;24.00;;;;;8.67;100.00;103591.25;4879171;29;51236;-72
2023/02/10 09:16:13;;;;;;;;;36.50;28.25;;;;;9.09;100.00;103644.97;4886547;29;49779;-74
2023/02/10 09:18:38;;;;;;;;;39.00;37.25;;;;;9.35;100.00;103665.19;4883164;29;49883;-73
2023/02/10 09:21:04;;;;;;;;;32.00;28.50;;;;;9.22;100.00;103638.91;4882990;29;50035;-72
2023/02/10 09:23:30;;;;;;;;;41.50;36.25;;;;;8.66;100.00;103554.47;4883104;29;50632;-73
2023/02/10 09:25:57;;;;;;;;;36.00;31.00;;;;;7.90;100.00;103397.94;4883339;29;49839;-73
2023/02/10 09:28:23;;;;;;;;;41.00;35.25;;;;;9.54;100.00;103649.97;4882677;28;49835;-74
2023/02/10 09:30:49;;;;;;;;;40.50;36.00;;;;;8.58;100.00;103499.84;4883191;29;49901;-74
2023/02/10 09:33:15;;;;;;;;;29.50;27.25;;;;;9.96;100.00;103699.31;4882353;29;50742;-73
2023/02/10 09:35:41;;;;;;;;;38.00;33.25;;;;;9.59;100.00;103658.19;4883394;28;49754;-74
2023/02/10 09:38:08;;;;;;;;;33.25;28.75;;;;;9.78;100.00;103668.25;4883583;29;49718;-72
2023/02/10 09:40:45;;;;;;;;;33.75;32.50;;;;;10.01;100.00;103684.78;4884066;29;50014;-72
2023/02/10 09:43:21;;;;;;;;;36.25;31.00;;;;;10.30;100.00;103723.59;4885203;28;50906;-71
2023/02/10 09:45:51;;;;;;;;;29.75;29.00;;;;;9.65;100.00;103604.44;4881307;29;49994;-75
2023/02/10 09:48:35;;;;;;;;;37.75;33.50;;;;;10.40;100.00;103726.84;4883279;29;50111;-73
2023/02/10 09:51:21;;;;;;;;;31.75;30.75;;;;;10.47;100.00;103739.59;4884339;28;49647;-76
2023/02/10 09:53:46;;;;;;;;;38.25;33.25;;;;;10.46;100.00;103720.31;4884194;29;50936;-71
2023/02/10 09:56:19;;;;;;;;;33.75;31.50;;;;;9.84;100.00;103611.84;4881884;28;50096;-72
2023/02/10 09:58:58;;;;;;;;;32.75;27.75;;;;;10.29;100.00;103699.84;4884388;29;49866;-73
2023/02/10 10:01:44;;;;;;;;;38.75;33.75;;;;;10.76;100.00;103731.97;4872940;29;50009;-71
2023/02/10 10:04:13;;;;;;;;;31.00;30.25;;;;;9.84;100.00;103546.25;4872125;29;50746;-73
2023/02/10 10:06:42;;;;;;;;;29.25;25.75;;;;;10.24;100.00;103639.16;4881895;29;49853;-71
2023/02/10 10:09:07;;;;;;;;;33.75;29.75;;;;;10.87;100.00;103730.97;4891030;28;50042;-72
2023/02/10 10:11:50;;;;;;;;;28.25;26.50;;;;;10.64;100.00;103702.25;4876422;29;49649;-72
2023/02/10 10:14:16;;;;;;;;;30.00;27.25;;;;;10.92;100.00;103736.56;4876672;29;50791;-72
2023/02/10 10:16:56;;;;;;;;;33.75;28.50;;;;;10.51;100.00;103670.69;4879132;28;49933;-74
2023/02/10 10:19:42;;;;;;;;;29.00;26.75;;;;;9.65;100.00;103548.44;4880411;28;49633;-73
2023/02/10 10:22:40;;;;;;;;;31.75;28.50;;;;;11.03;100.00;103735.56;4875190;29;50242;-72
2023/02/10 10:25:30;;;;;;;;;30.75;29.25;;;;;11.12;100.00;103740.50;4875760;29;49947;-72
2023/02/10 10:28:18;;;;;;;;;31.75;29.00;;;;;11.18;100.00;103733.00;4875819;29;49568;-73
2023/02/10 10:30:55;;;;;;;;;31.50;29.25;;;;;11.21;100.00;103733.22;4875572;29;49737;-72
2023/02/10 10:33:24;;;;;;;;;31.25;28.50;;;;;10.84;100.00;103654.56;4875749;28;49831;-71
2023/02/10 10:35:51;;;;;;;;;33.25;30.75;;;;;11.41;100.00;103768.72;4875286;29;50010;-71
2023/02/10 10:38:28;;;;;;;;;31.25;26.00;;;;;11.22;100.00;103724.53;4882072;29;49835;-72
2023/02/10 10:40:59;;;;;;;;;30.75;30.25;;;;;11.56;100.00;103753.91;4874916;29;49653;-73
2023/02/10 10:43:31;;;;;;;;;32.50;26.25;;;;;11.14;100.00;103668.78;4867773;29;50061;-71
2023/02/10 10:46:05;;;;;;;;;33.50;30.75;;;;;11.51;100.00;103730.75;4868165;29;50961;-72
2023/02/10 10:48:32;;;;;;;;;38.25;35.50;;;;;11.62;100.00;103770.09;4873997;29;49934;-72
2023/02/10 10:51:02;;;;;;;;;40.50;32.50;;;;;11.30;100.00;103701.34;4874726;29;49748;-72
2023/02/10 10:53:47;;;;;;;;;32.75;28.75;;;;;11.56;100.00;103730.22;4874564;29;49764;-72
2023/02/10 10:56:16;;;;;;;;;35.50;34.25;;;;;11.78;100.00;103765.81;4874115;29;50884;-72
2023/02/10 10:58:44;;;;;;;;;34.50;31.00;;;;;10.06;100.00;103484.75;4875347;29;49793;-72
2023/02/10 11:01:11;;;;;;;;;37.75;34.00;;;;;11.07;100.00;103639.38;4875479;29;49844;-72
2023/02/10 11:03:37;;;;;;;;;37.00;36.00;;;;;11.75;100.00;103729.66;4875438;29;49821;-73
2023/02/10 11:06:13;;;;;;;;;48.00;39.00;;;;;11.20;100.00;103665.66;4875192;29;49843;-72
2023/02/10 11:08:43;;;;;;;;;36.50;33.25;;;;;11.47;100.00;103675.28;4873798;29;50081;-72
2023/02/10 11:11:14;;;;;;;;;46.50;38.00;;;;;11.54;100.00;103704.63;4875387;29;49722;-72
2023/02/10 11:13:52;;;;;;;;;36.25;35.00;;;;;10.79;100.00;103544.69;4875411;29;49745;-72
2023/02/10 11:16:19;;;;;;;;;37.75;34.75;;;;;11.93;100.00;103727.31;4875039;29;49959;-73
2023/02/10 11:18:59;;;;;;;;;46.00;37.75;;;;;11.79;100.00;103691.31;4875101;29;49791;-72
2023/02/10 11:21:42;;;;;;;;;34.75;32.50;;;;;11.87;100.00;103719.97;4875294;29;49993;-72
2023/02/10 11:24:18;;;;;;;;;39.25;36.25;;;;;11.45;100.00;103665.50;4875161;29;49873;-72
2023/02/10 11:26:53;;;;;;;;;37.75;35.25;;;;;11.94;100.00;103735.31;4874933;29;50001;-72
2023/02/10 11:29:19;;;;;;;;;38.50;34.25;;;;;10.54;100.00;103468.69;4874825;29;49659;-73
2023/02/10 11:31:45;;;;;;;;;39.50;34.50;;;;;10.91;100.00;103565.63;4875021;29;49940;-72
2023/02/10 11:34:46;;;;;;;;;37.75;34.75;;;;;10.26;100.00;103422.25;4875239;29;49674;-72
2023/02/10 11:37:22;;;;;;;;;43.50;35.75;;;;;10.71;100.00;103489.06;4871161;29;50053;-72
2023/02/10 11:39:48;;;;;;;;;39.75;35.25;;;;;11.76;100.00;103663.06;4874880;29;49638;-72
2023/02/10 11:42:25;;;;;;;;;39.25;35.00;;;;;10.52;100.00;103409.91;4874785;29;49909;-72
2023/02/10 11:44:56;;;;;;;;;43.00;36.50;;;;;11.80;100.00;103620.38;4874860;29;50070;-72
2023/02/10 11:47:22;;;;;;;;;41.75;37.50;;;;;12.41;100.00;103723.25;4874541;29;50669;-72
2023/02/10 11:49:49;;;;;;;;;35.25;34.75;;;;;12.09;100.00;103655.47;4874812;29;49850;-72
2023/02/10 11:52:21;;;;;;;;;38.75;35.00;;;;;10.94;100.00;103468.56;4874737;29;49712;-72
2023/02/10 11:54:47;;;;;;;;;44.50;39.00;;;;;12.57;100.00;103719.00;4874700;29;49579;-72
2023/02/10 12:00:12;;;;;;;;;40.00;35.50;;;;;12.10;100.00;103617.78;4874698;29;49701;-73
2023/02/10 12:02:59;;;;;;;;;42.25;36.75;;;;;12.59;100.00;103705.91;4874478;29;49733;-73
2023/02/10 12:05:31;;;;;;;;;47.50;38.00;;;;;12.50;100.00;103713.25;4874706;29;49662;-72
2023/02/10 12:08:53;;;;;;;;;35.00;34.25;;;;;11.47;100.00;103548.13;4888677;28;51755;-71
2023/02/10 12:11:43;;;;;;;;;32.75;30.75;;;;;12.18;100.00;103692.88;4873662;29;49821;-75
2023/02/10 12:14:45;;;;;;;;;44.00;37.00;;;;;12.17;100.00;103713.06;4873799;29;49890;-73
2023/02/10 12:17:27;;;;;;;;;53.25;39.75;;;;;11.90;100.00;103661.31;4874453;29;50033;-72
2023/02/10 12:20:14;;;;;;;;;36.00;33.25;;;;;12.18;100.00;103706.97;4870800;29;51156;-76
2023/02/10 12:22:51;;;;;;;;;42.50;34.75;;;;;12.18;100.00;103704.31;4877733;29;49539;-73
2023/02/10 12:25:27;;;;;;;;;38.00;36.00;;;;;12.14;100.00;103719.84;4877056;29;50295;-74
2023/02/10 12:28:05;;;;;;;;;41.50;37.25;;;;;12.18;100.00;103703.41;4870570;29;49764;-72
2023/02/10 12:30:51;;;;;;;;;41.50;35.75;;;;;12.14;100.00;103715.47;4881969;29;50930;-69
2023/02/10 12:33:55;;;;;;;;;46.00;38.00;;;;;11.56;100.00;103584.59;4882038;29;49871;-74
2023/02/10 12:36:35;;;;;;;;;40.00;35.50;;;;;12.21;100.00;103686.06;4892599;29;49522;-77
2023/02/10 12:39:03;;;;;;;;;43.00;37.50;;;;;11.91;100.00;103629.81;4894321;29;49313;-78
2023/02/10 12:41:49;;;;;;;;;38.75;35.75;;;;;11.09;100.00;103487.91;4908713;28;51118;-75
2023/02/10 12:44:36;;;;;;;;;34.50;33.00;;;;;12.36;100.00;103680.84;4892712;29;49397;-74
2023/02/10 12:47:04;;;;;;;;;37.75;34.50;;;;;12.37;100.00;103687.91;4883664;29;49864;-71
2023/02/10 12:49:41;;;;;;;;;45.50;38.75;;;;;12.36;100.00;103679.91;4877542;29;51285;-72
2023/02/10 12:52:24;;;;;;;;;49.00;40.75;;;;;12.37;100.00;103687.00;4879277;29;50029;-72
2023/02/10 12:54:53;;;;;;;;;49.25;40.50;;;;;12.39;100.00;103683.63;4876903;29;50037;-71
2023/02/10 12:57:36;;;;;;;;;37.00;33.75;;;;;11.99;100.00;103625.94;4876959;29;49794;-71
2023/02/10 13:00:07;;;;;;;;;45.75;38.25;;;;;12.32;100.00;103665.63;4877287;29;49670;-72
2023/02/10 13:02:40;;;;;;;;;40.00;36.50;;;;;11.12;100.00;103481.13;4876913;29;49764;-75
2023/02/10 13:05:15;;;;;;;;;41.50;35.75;;;;;11.11;100.00;103454.75;4878286;29;49866;-74
2023/02/10 13:07:51;;;;;;;;;34.25;31.25;;;;;12.35;100.00;103662.28;4881567;29;49828;-73
2023/02/10 13:10:31;;;;;;;;;43.25;37.50;;;;;12.35;100.00;103660.53;4878806;29;49986;-74
2023/02/10 13:13:01;;;;;;;;;38.75;31.25;;;;;11.89;100.00;103584.09;4876658;29;50553;-74
2023/02/10 13:15:32;;;;;;;;;31.25;31.00;;;;;11.07;100.00;103460.63;4891087;28;49686;-74
2023/02/10 13:17:59;;;;;;;;;39.50;36.75;;;;;11.23;100.00;103429.19;4876886;28;49971;-74
2023/02/10 13:20:58;;;;;;;;;35.00;33.00;;;;;12.63;100.00;103659.53;4877148;29;49965;-74
2023/02/10 13:23:49;;;;;;;;;36.75;34.00;;;;;12.75;100.00;103653.28;4876464;29;50971;-74
2023/02/10 13:26:48;;;;;;;;;31.00;30.75;;;;;12.46;100.00;103593.63;4876723;28;50360;-74
2023/02/10 13:29:37;;;;;;;;;35.50;33.00;;;;;12.90;100.00;103648.88;4876777;29;49630;-74
2023/02/10 13:32:37;;;;;;;;;30.25;28.50;;;;;12.83;100.00;103651.97;4875920;29;50212;-74
2023/02/10 13:35:07;;;;;;;;;31.50;30.25;;;;;12.49;100.00;103604.31;4875312;29;50817;-72
2023/02/10 13:37:47;;;;;;;;;34.50;32.75;;;;;12.77;100.00;103651.63;4875722;29;50051;-74
2023/02/10 13:40:17;;;;;;;;;31.25;27.25;;;;;12.74;100.00;103656.75;4891214;29;49904;-74
2023/02/10 13:42:58;;;;;;;;;27.00;24.00;;;;;12.70;100.00;103657.34;4891076;29;49755;-74
2023/02/10 13:45:26;;;;;;;;;30.50;28.00;;;;;12.18;100.00;103567.38;4872278;29;50486;-74
2023/02/10 13:47:58;;;;;;;;;34.75;29.50;;;;;12.19;100.00;103585.00;4876618;29;49674;-75
2023/02/10 13:50:29;;;;;;;;;24.75;23.00;;;;;11.82;100.00;103523.06;4876551;29;49889;-75
2023/02/10 13:52:56;;;;;;;;;25.25;19.00;;;;;11.53;100.00;103471.31;4876489;29;49693;-72
2023/02/10 13:55:21;;;;;;;;;31.00;27.50;;;;;12.68;100.00;103648.47;4876355;29;49885;-72
2023/02/10 13:57:58;;;;;;;;;25.50;25.50;;;;;11.46;100.00;103476.19;4890640;28;49743;-72
2023/02/10 14:00:30;;;;;;;;;34.75;31.50;;;;;12.72;100.00;103658.34;4876645;29;50313;-72
2023/02/10 14:03:20;;;;;;;;;28.75;26.00;;;;;12.72;100.00;103637.25;4876511;29;49818;-74
2023/02/10 14:05:57;;;;;;;;;25.00;21.50;;;;;12.81;100.00;103650.06;4876266;29;50016;-72
2023/02/10 14:08:38;;;;;;;;;28.00;25.00;;;;;11.84;100.00;103490.75;4875982;29;49784;-72
2023/02/10 14:11:15;;;;;;;;;29.75;25.50;;;;;12.92;100.00;103637.50;4876388;29;49629;-75
2023/02/10 14:13:59;;;;;;;;;29.00;22.50;;;;;11.80;100.00;103488.78;4876405;29;49758;-76
2023/02/10 14:16:36;;;;;;;;;28.75;27.50;;;;;12.25;100.00;103531.75;4890604;29;52744;-74
2023/02/10 14:19:05;;;;;;;;;28.00;23.00;;;;;11.02;100.00;103321.03;4876247;29;49737;-72
2023/02/10 14:21:43;;;;;;;;;23.25;23.25;;;;;12.34;100.00;103569.16;4876190;29;49926;-74
2023/02/10 14:24:18;;;;;;;;;26.00;24.00;;;;;12.77;100.00;103646.34;4876235;29;49625;-72
2023/02/10 14:26:46;;;;;;;;;28.50;24.25;;;;;12.23;100.00;103536.03;4875673;29;49879;-75
2023/02/10 14:29:18;;;;;;;;;25.75;24.50;;;;;12.22;100.00;103556.19;4876132;29;50037;-72
2023/02/10 14:31:51;;;;;;;;;30.00;28.25;;;;;12.60;100.00;103616.38;4875979;29;49711;-75
2023/02/10 14:34:20;;;;;;;;;25.00;22.75;;;;;12.32;100.00;103600.69;4890591;29;49979;-74
2023/02/10 14:37:12;;;;;;;;;23.25;21.25;;;;;11.72;100.00;103490.00;4875509;29;51136;-74
2023/02/10 14:39:37;;;;;;;;;26.75;22.75;;;;;12.11;100.00;103538.88;4875690;29;49647;-74
2023/02/10 14:42:05;;;;;;;;;22.25;21.50;;;;;11.50;100.00;103468.50;4875902;29;50153;-74
2023/02/10 14:44:45;;;;;;;;;22.00;21.25;;;;;11.64;100.00;103433.38;4875927;29;49643;-74
2023/02/10 14:47:23;;;;;;;;;28.00;22.25;;;;;12.71;100.00;103606.44;4875484;29;50757;-74
2023/02/10 14:49:52;;;;;;;;;21.00;18.75;;;;;12.43;100.00;103552.97;4875694;29;49767;-74
2023/02/10 14:52:28;;;;;;;;;24.50;20.50;;;;;12.81;100.00;103615.78;4875700;29;49728;-74
2023/02/10 14:54:54;;;;;;;;;26.75;21.25;;;;;12.68;100.00;103582.56;4875794;29;49718;-74
2023/02/10 14:57:22;;;;;;;;;20.75;19.00;;;;;12.74;100.00;103608.34;4875655;29;50556;-74
2023/02/10 14:59:58;;;;;;;;;25.00;21.75;;;;;12.69;100.00;103604.56;4875620;29;50163;-74
2023/02/10 15:02:26;;;;;;;;;24.25;21.50;;;;;11.68;100.00;103438.94;4875791;29;49572;-74
2023/02/10 15:04:56;;;;;;;;;23.75;21.25;;;;;12.36;100.00;103567.56;4875784;29;49778;-75
2023/02/10 15:07:30;;;;;;;;;27.25;21.25;;;;;12.56;100.00;103608.22;4875188;29;50974;-74
2023/02/10 15:10:00;;;;;;;;;18.75;18.75;;;;;12.39;100.00;103580.91;4875700;29;49607;-74
2023/02/10 15:12:27;;;;;;;;;18.25;17.00;;;;;11.74;100.00;103460.31;4875839;29;49892;-78
2023/02/10 15:15:04;;;;;;;;;25.00;22.00;;;;;12.20;100.00;103560.47;4875801;28;49582;-76
2023/02/10 15:17:42;;;;;;;;;20.75;17.00;;;;;11.80;100.00;103483.50;4875716;29;50594;-75
2023/02/10 15:20:13;;;;;;;;;22.50;20.00;;;;;12.52;100.00;103612.38;4874205;29;49721;-76
2023/02/10 15:22:40;;;;;;;;;25.25;22.00;;;;;11.39;100.00;103458.25;4872166;29;49854;-75
2023/02/10 15:25:29;;;;;;;;;28.25;23.75;;;;;11.57;100.00;103462.75;4871848;29;49744;-76
2023/02/10 15:27:55;;;;;;;;;23.50;21.00;;;;;12.08;100.00;103553.59;4875050;29;49779;-76
2023/02/10 15:30:25;;;;;;;;;24.25;21.25;;;;;12.07;100.00;103554.41;4873917;29;49900;-76
2023/02/10 15:32:58;;;;;;;;;21.50;20.50;;;;;11.55;100.00;103481.09;4874657;29;49733;-77
2023/02/10 15:35:25;;;;;;;;;23.50;21.75;;;;;11.91;100.00;103547.31;4875037;29;49814;-77
2023/02/10 15:37:54;;;;;;;;;28.75;25.00;;;;;12.10;100.00;103549.31;4873931;29;49748;-77
2023/02/10 15:40:26;;;;;;;;;24.25;22.75;;;;;11.08;100.00;103430.88;4875213;29;49916;-77
2023/02/10 15:43:03;;;;;;;;;28.00;26.75;;;;;11.35;100.00;103455.31;4874879;29;49682;-77
2023/02/10 15:45:29;;;;;;;;;29.00;26.00;;;;;12.42;100.00;103609.13;4875373;29;49776;-77
2023/02/10 15:48:05;;;;;;;;;23.25;22.50;;;;;11.37;100.00;103411.59;4874666;29;50744;-77
2023/02/10 15:50:31;;;;;;;;;30.25;25.50;;;;;12.20;100.00;103563.09;4873645;28;49922;-77
2023/02/10 15:52:58;;;;;;;;;26.75;25.25;;;;;10.84;100.00;103307.69;4874343;29;49912;-77
2023/02/10 15:55:29;;;;;;;;;31.75;25.75;;;;;12.50;100.00;103598.22;4876430;29;49960;-75
2023/02/10 15:57:55;;;;;;;;;25.50;24.00;;;;;11.71;100.00;103503.97;4891681;29;50805;-72
2023/02/10 16:00:25;;;;;;;;;25.75;24.25;;;;;12.13;100.00;103526.69;4874857;29;49917;-72
2023/02/10 16:02:51;;;;;;;;;30.50;27.75;;;;;12.16;100.00;103529.53;4874755;29;49815;-74
2023/02/10 16:05:17;;;;;;;;;26.75;22.50;;;;;11.78;100.00;103460.53;4877546;29;49984;-76
2023/02/10 16:07:43;;;;;;;;;30.25;26.75;;;;;12.48;100.00;103601.59;4877492;29;50628;-71
2023/02/10 16:10:20;;;;;;;;;27.00;25.00;;;;;12.17;100.00;103567.28;4876780;28;50097;-71
2023/02/10 16:12:45;;;;;;;;;9.75;7.50;;;;;12.33;100.00;103607.78;4880418;29;49840;-72
2023/02/10 16:15:16;;;;;;;;;27.25;26.75;;;;;12.05;100.00;103556.94;4877439;29;49724;-71
2023/02/10 16:17:44;;;;;;;;;29.50;26.50;;;;;11.93;100.00;103551.84;4879999;28;50625;-71
2023/02/10 16:20:18;;;;;;;;;28.00;27.00;;;;;12.12;100.00;103595.06;4880366;29;49897;-71
2023/02/10 16:22:44;;;;;;;;;30.25;23.00;;;;;11.79;100.00;103555.34;4879606;29;49978;-70
2023/02/10 16:25:09;;;;;;;;;21.50;21.50;;;;;11.57;100.00;103529.44;4876649;29;50023;-70
2023/02/10 16:27:34;;;;;;;;;27.00;25.75;;;;;11.53;100.00;103545.88;4894290;29;51534;-70
2023/02/10 16:30:00;;;;;;;;;26.75;22.50;;;;;11.30;100.00;103507.66;4878534;29;50008;-72
2023/02/10 16:32:25;;;;;;;;;29.75;27.00;;;;;11.03;100.00;103471.75;4880219;29;50037;-71
2023/02/10 16:34:50;;;;;;;;;25.75;25.75;;;;;11.06;100.00;103480.75;4892949;28;49994;-73
2023/02/10 16:37:20;;;;;;;;;28.00;25.50;;;;;11.43;100.00;103556.66;4877928;29;49835;-70
2023/02/10 16:39:46;;;;;;;;;26.25;24.25;;;;;11.63;100.00;103611.41;4882771;29;49883;-71
2023/02/10 16:42:11;;;;;;;;;23.25;22.25;;;;;11.42;100.00;103579.41;4877135;28;49770;-70
2023/02/10 16:44:37;;;;;;;;;26.75;24.75;;;;;11.53;100.00;103602.84;4878027;29;50125;-70
2023/02/10 16:47:02;;;;;;;;;28.75;26.25;;;;;11.43;100.00;103590.84;4875908;29;49642;-71
2023/02/10 16:49:28;;;;;;;;;25.50;24.25;;;;;10.98;100.00;103523.13;4876550;29;49892;-70
2023/02/10 16:51:54;;;;;;;;;30.50;25.25;;;;;11.15;100.00;103560.19;4876161;29;49868;-71
2023/02/10 16:54:19;;;;;;;;;29.25;26.00;;;;;11.07;100.00;103553.53;4876644;29;50099;-70
2023/02/10 16:56:45;;;;;;;;;28.50;27.50;;;;;10.86;100.00;103544.28;4876709;29;50747;-70
2023/02/10 16:59:16;;;;;;;;;24.75;23.50;;;;;10.92;100.00;103560.47;4876865;29;50012;-70
2023/02/10 17:01:43;;;;;;;;;22.00;19.50;;;;;10.28;100.00;103493.25;4876876;29;49747;-73
2023/02/10 17:04:08;;;;;;;;;24.00;20.50;;;;;11.03;100.00;103624.22;4877074;28;49968;-71